SBVT/VIX METAR and TAF weather

Enter ICAO airport designator
Station Type Date Time Source
SBVT METAR 2021/05/10 01:00 UTC NOAA

SBVT 100100Z 32003KT 9999 FEW040 BKN050 20/19 Q1023


Station Type Date Time Source
SBVT Decoded METAR 2021/05/10 01:00 UTC NOAA

Vitoria Aeroporto , Brazil (SBVT) 20-16S 040-17W 4M
May 09, 2021 - 09:00 PM EDT / 2021.05.10 0100 UTC
Wind: from the NW (320 degrees) at 3 MPH (3 KT):0
Visibility: greater than 7 mile(s):0
Sky conditions: mostly cloudy
Temperature: 68 F (20 C)
Dew Point: 66 F (19 C)
Relative Humidity: 93%
Pressure (altimeter): 30.21 in. Hg (1023 hPa)
ob: SBVT 100100Z 32003KT 9999 FEW040 BKN050 20/19 Q1023
cycle: 1

Station Type Date Time Source
SBVT TAF 2021/05/10 00:00 UTC NOAA

TAF SBVT 092045Z 1000/1024 17015KT 8000 BKN020 TN20/1008Z TX26/1017Z
BECMG 1001/1003 21010KT BKN016 PROB40
TEMPO 1008/1012 5000 RA BKN012
BECMG 1013/1015 17010KT BKN020
BECMG 1016/1018 SCT020
RMK PGS

Example: see airport list